Time;durP1;ratioP1;P1;durP2;ratioP2;P2;SDS_P1;SDS_P2;PMS_P1;PMS_P2;Temp;Humidity;BMP_temperature;BMP_pressure;BME280_temperature;BME280_humidity;BME280_pressure;Samples;Min_cycle;Max_cycle;Signal;HPM_P1;HPM_P2
2023/12/20 00:00:52;;;;;;;50.03;27.98;;;15.20;16.40;;;;;;4949767;29;20047;-67
2023/12/20 00:03:18;;;;;;;54.40;27.75;;;15.50;1.00;;;;;;4948882;29;20046;-66
2023/12/20 00:05:43;;;;;;;44.83;24.10;;;15.20;1.00;;;;;;4949597;29;20047;-67
2023/12/20 00:08:09;;;;;;;49.78;25.95;;;15.20;99.90;;;;;;4949648;29;20074;-66
2023/12/20 00:10:35;;;;;;;49.72;26.67;;;15.50;99.90;;;;;;4949103;29;20055;-68
2023/12/20 00:13:00;;;;;;;47.42;27.88;;;15.40;99.90;;;;;;4949409;29;20400;-67
2023/12/20 00:15:26;;;;;;;47.40;27.77;;;15.80;99.90;;;;;;4949154;29;20050;-68
2023/12/20 00:17:51;;;;;;;48.28;26.27;;;15.70;99.90;;;;;;4948614;28;20106;-67
2023/12/20 00:20:17;;;;;;;54.05;27.85;;;15.70;10.20;;;;;;4949259;29;20050;-66
2023/12/20 00:22:42;;;;;;;51.75;27.02;;;15.90;1.00;;;;;;4933096;29;20055;-68
2023/12/20 00:25:08;;;;;;;53.10;27.80;;;16.10;1.00;;;;;;4949500;29;20051;-67
2023/12/20 00:27:33;;;;;;;58.38;27.50;;;15.90;99.90;;;;;;4933482;29;20500;-68
2023/12/20 00:29:59;;;;;;;54.50;27.98;;;15.50;99.90;;;;;;4948970;28;20336;-67
2023/12/20 00:32:25;;;;;;;51.58;29.20;;;16.30;99.90;;;;;;4948547;29;20058;-67
2023/12/20 00:34:50;;;;;;;51.47;25.63;;;15.80;99.90;;;;;;4949230;29;20043;-66
2023/12/20 00:37:16;;;;;;;33.15;22.52;;;15.70;99.90;;;;;;4949437;29;20062;-66
2023/12/20 00:39:42;;;;;;;53.50;27.48;;;15.60;99.90;;;;;;4949484;28;20070;-65
2023/12/20 00:42:07;;;;;;;49.30;28.70;;;15.80;99.90;;;;;;4949145;29;20050;-67
2023/12/20 00:44:33;;;;;;;43.90;24.15;;;15.60;99.90;;;;;;4950111;29;20043;-67
2023/12/20 00:46:59;;;;;;;39.67;23.33;;;15.50;99.90;;;;;;4948988;29;20039;-68
2023/12/20 00:49:24;;;;;;;60.05;27.85;;;16.00;58.10;;;;;;4932976;29;20039;-68
2023/12/20 00:51:52;;;;;;;53.38;28.55;;;15.90;99.90;;;;;;4949098;29;20496;-68
2023/12/20 00:54:17;;;;;;;46.65;25.30;;;16.00;99.90;;;;;;4948696;29;20126;-68
2023/12/20 00:56:43;;;;;;;52.95;28.60;;;16.10;99.90;;;;;;4949500;29;20126;-67
2023/12/20 00:59:09;;;;;;;56.50;27.92;;;15.60;99.90;;;;;;4949545;29;20057;-69
2023/12/20 01:01:34;;;;;;;66.68;30.58;;;16.00;99.90;;;;;;4949218;29;20050;-69
2023/12/20 01:04:00;;;;;;;62.10;29.88;;;15.60;99.90;;;;;;4948336;29;20102;-67
2023/12/20 01:06:26;;;;;;;72.43;30.35;;;15.60;99.90;;;;;;4948796;29;20055;-67
2023/12/20 01:08:51;;;;;;;62.83;29.83;;;15.70;99.90;;;;;;4948441;29;20042;-67
2023/12/20 01:11:17;;;;;;;37.85;25.48;;;16.10;65.00;;;;;;4932342;29;20449;-67
2023/12/20 01:13:42;;;;;;;40.72;24.45;;;15.60;1.00;;;;;;4948243;29;20415;-67
2023/12/20 01:16:11;;;;;;;56.35;26.33;;;16.00;99.90;;;;;;4948498;29;20428;-67
2023/12/20 01:18:36;;;;;;;43.33;24.27;;;15.80;99.90;;;;;;4948456;28;20114;-67
2023/12/20 01:21:03;;;;;;;51.25;28.40;;;15.90;1.00;;;;;;4948269;29;20051;-68
2023/12/20 01:23:29;;;;;;;61.90;28.10;;;16.20;1.00;;;;;;4946793;29;20051;-67
2023/12/20 01:25:55;;;;;;;61.67;27.70;;;16.10;1.00;;;;;;4947200;29;20489;-67
2023/12/20 01:28:20;;;;;;;58.47;27.50;;;16.20;99.90;;;;;;4947571;29;20051;-66
2023/12/20 01:30:46;;;;;;;60.67;25.95;;;15.70;99.90;;;;;;4947472;29;20556;-67
2023/12/20 01:33:12;;;;;;;50.80;27.38;;;15.90;99.90;;;;;;4947740;29;20035;-67
2023/12/20 01:35:37;;;;;;;40.28;22.52;;;16.00;99.90;;;;;;4948449;29;20516;-66
2023/12/20 01:38:03;;;;;;;50.30;28.23;;;15.80;35.20;;;;;;4948408;29;20114;-67
2023/12/20 01:40:28;;;;;;;56.47;26.85;;;15.90;99.90;;;;;;4947896;29;20043;-67
2023/12/20 01:43:09;;;;;;;46.40;24.02;;;16.20;99.90;;;;;;4947429;29;20071;-67
2023/12/20 01:45:35;;;;;;;57.55;28.05;;;16.20;57.40;;;;;;4947608;29;20047;-67
2023/12/20 01:48:02;;;;;;;64.90;29.17;;;16.20;99.90;;;;;;4947927;29;20405;-67
2023/12/20 01:50:28;;;;;;;50.65;27.20;;;15.80;99.90;;;;;;4948064;28;20568;-67
2023/12/20 01:52:57;;;;;;;57.88;27.33;;;16.10;1.00;;;;;;4931045;29;20121;-69
2023/12/20 01:55:24;;;;;;;56.05;27.95;;;15.90;99.90;;;;;;4947607;29;20125;-69
2023/12/20 01:57:50;;;;;;;51.10;24.17;;;17.10;99.90;;;;;;4947639;29;20497;-69
2023/12/20 02:00:16;;;;;;;57.88;27.88;;;15.90;99.90;;;;;;4947211;29;20542;-68
2023/12/20 02:02:44;;;;;;;55.83;27.77;;;16.10;99.90;;;;;;4946897;29;20222;-68
2023/12/20 02:05:11;;;;;;;60.38;28.38;;;16.00;99.90;;;;;;4946738;29;20113;-66
2023/12/20 02:07:36;;;;;;;60.90;29.20;;;16.10;99.90;;;;;;4947382;29;20055;-66
2023/12/20 02:10:04;;;;;;;60.17;28.15;;;16.20;99.90;;;;;;4947078;29;20674;-67
2023/12/20 02:12:29;;;;;;;53.10;29.75;;;15.80;99.90;;;;;;4947499;29;20047;-66
2023/12/20 02:14:55;;;;;;;54.55;28.05;;;15.80;99.90;;;;;;4947467;29;20552;-66
2023/12/20 02:17:22;;;;;;;57.20;28.63;;;16.20;99.90;;;;;;4946999;28;20035;-65
2023/12/20 02:19:47;;;;;;;57.13;28.67;;;16.00;99.90;;;;;;4930775;29;20129;-65
2023/12/20 02:22:13;;;;;;;60.10;29.05;;;16.00;99.90;;;;;;4947420;29;20588;-65
2023/12/20 02:24:39;;;;;;;51.25;28.10;;;16.10;99.90;;;;;;4946346;29;20043;-69
2023/12/20 02:27:06;;;;;;;49.90;27.73;;;15.90;99.90;;;;;;4947005;29;20043;-67
2023/12/20 02:29:33;;;;;;;63.80;27.65;;;16.10;99.90;;;;;;4948081;28;20050;-66
2023/12/20 02:31:59;;;;;;;59.30;28.02;;;16.10;84.70;;;;;;4946937;29;20043;-65
2023/12/20 02:34:24;;;;;;;52.90;28.67;;;15.70;99.90;;;;;;4947231;29;20070;-65
2023/12/20 02:36:50;;;;;;;56.80;30.15;;;16.00;99.90;;;;;;4947201;29;20051;-67
2023/12/20 02:39:16;;;;;;;38.17;24.83;;;16.00;99.90;;;;;;4947225;29;20512;-67
2023/12/20 02:41:42;;;;;;;63.88;29.45;;;15.90;99.90;;;;;;4946800;29;20047;-66
2023/12/20 02:44:07;;;;;;;56.40;29.25;;;16.10;99.90;;;;;;4946768;29;20173;-66
2023/12/20 02:46:33;;;;;;;56.00;27.73;;;15.70;99.90;;;;;;4947004;29;20031;-65
2023/12/20 02:48:59;;;;;;;59.17;29.60;;;15.90;99.90;;;;;;4946983;29;20055;-66
2023/12/20 02:51:24;;;;;;;56.95;30.15;;;16.10;99.90;;;;;;4946802;29;20055;-65
2023/12/20 02:53:50;;;;;;;56.40;28.83;;;15.70;99.90;;;;;;4946820;29;20052;-66
2023/12/20 02:56:15;;;;;;;53.22;28.08;;;16.10;1.00;;;;;;4946475;29;20043;-65
2023/12/20 02:58:41;;;;;;;44.92;25.10;;;15.90;23.90;;;;;;4946796;29;20136;-67
2023/12/20 03:01:06;;;;;;;60.80;30.88;;;15.80;85.90;;;;;;4930504;28;20137;-66
2023/12/20 03:03:32;;;;;;;59.88;29.00;;;16.10;99.90;;;;;;4950046;29;20102;-65
2023/12/20 03:05:58;;;;;;;58.38;29.55;;;15.80;99.90;;;;;;4950944;29;20074;-67
2023/12/20 03:08:23;;;;;;;61.80;29.90;;;16.10;99.90;;;;;;4950192;29;20098;-65
2023/12/20 03:10:49;;;;;;;43.28;23.92;;;15.80;1.00;;;;;;4949862;29;20129;-66
2023/12/20 03:13:14;;;;;;;54.05;26.75;;;15.80;99.90;;;;;;4950039;29;20043;-66
2023/12/20 03:15:40;;;;;;;60.50;26.83;;;16.20;99.90;;;;;;4950353;29;20039;-67
2023/12/20 03:18:06;;;;;;;57.47;28.42;;;16.20;97.50;;;;;;4933980;29;20079;-66
2023/12/20 03:20:34;;;;;;;53.63;28.15;;;15.90;99.90;;;;;;4949731;29;20090;-66
2023/12/20 03:23:00;;;;;;;55.47;28.58;;;16.40;3.40;;;;;;4949650;29;20420;-68
2023/12/20 03:25:26;;;;;;;60.95;28.13;;;16.00;1.00;;;;;;4949370;29;20082;-67
2023/12/20 03:27:52;;;;;;;53.97;29.83;;;16.50;1.00;;;;;;4950212;29;20484;-67
2023/12/20 03:30:18;;;;;;;56.08;29.13;;;17.40;48.30;;;;;;4949967;29;20087;-65
2023/12/20 03:32:44;;;;;;;60.78;31.10;;;16.00;55.80;;;;;;4949426;29;20077;-67
2023/12/20 03:35:09;;;;;;;60.75;31.08;;;16.00;99.90;;;;;;4949020;29;20552;-65
2023/12/20 03:37:35;;;;;;;61.58;30.88;;;16.00;99.90;;;;;;4949717;29;20098;-65
2023/12/20 03:40:01;;;;;;;39.50;24.33;;;16.70;99.90;;;;;;4949831;29;20047;-65
2023/12/20 03:42:26;;;;;;;57.25;30.02;;;16.00;1.00;;;;;;4949604;29;20075;-65
2023/12/20 03:44:52;;;;;;;52.42;29.50;;;16.30;17.50;;;;;;4949479;29;20125;-66
2023/12/20 03:47:17;;;;;;;58.67;29.30;;;16.20;5.20;;;;;;4949464;29;20053;-65
2023/12/20 03:49:43;;;;;;;65.43;32.00;;;16.30;21.00;;;;;;4949716;29;20046;-66
2023/12/20 03:52:08;;;;;;;66.10;30.15;;;16.30;45.50;;;;;;4949474;29;20051;-65
2023/12/20 03:54:35;;;;;;;64.38;30.40;;;16.00;99.90;;;;;;4948795;29;20531;-66
2023/12/20 03:57:01;;;;;;;68.28;31.02;;;15.90;99.90;;;;;;4949385;29;20134;-65
2023/12/20 03:59:27;;;;;;;71.55;29.67;;;16.00;99.90;;;;;;4949456;29;20138;-67
2023/12/20 04:01:52;;;;;;;60.40;29.95;;;16.10;99.90;;;;;;4949700;29;20093;-67
2023/12/20 04:04:19;;;;;;;61.38;30.00;;;16.00;1.00;;;;;;4948819;29;20039;-67
2023/12/20 04:06:44;;;;;;;54.13;25.90;;;15.80;99.90;;;;;;4949622;29;20110;-66
2023/12/20 04:09:10;;;;;;;54.58;25.23;;;16.20;22.30;;;;;;4948595;29;20043;-66
2023/12/20 04:11:36;;;;;;;57.83;29.73;;;16.20;1.00;;;;;;4950427;29;20049;-66
2023/12/20 04:14:02;;;;;;;61.40;30.05;;;16.30;1.00;;;;;;4947699;28;20492;-66
2023/12/20 04:16:27;;;;;;;60.50;30.67;;;16.00;1.00;;;;;;4948840;29;20047;-68
2023/12/20 04:18:53;;;;;;;70.03;32.75;;;16.40;99.90;;;;;;4947933;28;20524;-67
2023/12/20 04:21:18;;;;;;;62.75;31.45;;;16.10;1.00;;;;;;4950122;29;20049;-65
2023/12/20 04:23:44;;;;;;;58.97;30.55;;;16.10;1.00;;;;;;4948317;29;20066;-65
2023/12/20 04:26:10;;;;;;;66.30;32.25;;;16.30;99.90;;;;;;4949134;29;20051;-65
2023/12/20 04:28:36;;;;;;;66.78;31.75;;;16.10;99.90;;;;;;4949165;29;20138;-66
2023/12/20 04:31:01;;;;;;;61.95;30.38;;;16.00;99.90;;;;;;4947819;29;20057;-66
2023/12/20 04:33:27;;;;;;;60.67;30.25;;;16.30;64.90;;;;;;4948076;29;20047;-67
2023/12/20 04:35:53;;;;;;;63.05;30.45;;;16.00;1.00;;;;;;4948787;29;20095;-65
2023/12/20 04:38:18;;;;;;;55.58;29.55;;;16.10;1.00;;;;;;4948846;29;20050;-66
2023/12/20 04:40:44;;;;;;;56.60;29.40;;;16.30;1.00;;;;;;4948436;29;20110;-65
2023/12/20 04:43:09;;;;;;;57.38;28.85;;;16.00;1.00;;;;;;4948318;29;20566;-65
2023/12/20 04:45:35;;;;;;;67.45;30.20;;;16.30;99.90;;;;;;4948098;29;20043;-65
2023/12/20 04:48:02;;;;;;;68.60;29.92;;;16.30;1.00;;;;;;4948450;29;20051;-67
2023/12/20 04:50:27;;;;;;;58.88;29.38;;;16.40;1.00;;;;;;4948039;29;20576;-66
2023/12/20 04:52:53;;;;;;;59.50;30.42;;;16.20;1.00;;;;;;4947786;29;20086;-66
2023/12/20 04:55:19;;;;;;;59.38;28.83;;;16.00;1.00;;;;;;4947918;29;20050;-66
2023/12/20 04:57:45;;;;;;;55.50;28.38;;;16.30;1.00;;;;;;4943379;29;20094;-66
2023/12/20 05:00:12;;;;;;;65.18;30.25;;;16.10;1.00;;;;;;4938192;29;20512;-66
2023/12/20 05:02:37;;;;;;;61.72;30.65;;;16.30;1.00;;;;;;4945412;29;20054;-66
2023/12/20 05:05:03;;;;;;;63.63;30.67;;;16.40;1.00;;;;;;4949334;28;20072;-67
2023/12/20 05:07:29;;;;;;;59.40;29.63;;;16.40;30.90;;;;;;4926637;29;20043;-67
2023/12/20 05:09:54;;;;;;;64.78;30.80;;;16.30;83.40;;;;;;4931059;29;20125;-65
2023/12/20 05:12:20;;;;;;;62.67;29.83;;;16.10;87.80;;;;;;4947959;29;20042;-67
2023/12/20 05:14:46;;;;;;;56.10;29.48;;;16.10;1.00;;;;;;4947743;29;20058;-65
2023/12/20 05:17:12;;;;;;;61.85;30.40;;;16.20;99.90;;;;;;4948055;28;20066;-65
2023/12/20 05:19:37;;;;;;;62.58;31.90;;;16.40;1.00;;;;;;4945285;28;20556;-65
2023/12/20 05:22:03;;;;;;;58.70;31.55;;;16.50;99.90;;;;;;4945825;29;20047;-66
2023/12/20 05:24:29;;;;;;;58.83;29.90;;;16.50;99.90;;;;;;4947420;28;20039;-66
2023/12/20 05:26:54;;;;;;;54.00;31.10;;;16.30;99.90;;;;;;4947549;29;20039;-67
2023/12/20 05:29:20;;;;;;;59.25;30.25;;;16.10;99.90;;;;;;4947231;29;20174;-65
2023/12/20 05:31:46;;;;;;;60.92;30.95;;;16.10;99.90;;;;;;4946992;29;20434;-65
2023/12/20 05:34:11;;;;;;;67.57;31.77;;;16.10;1.00;;;;;;4947244;29;20050;-66
2023/12/20 05:36:38;;;;;;;64.05;31.35;;;16.40;1.00;;;;;;4944645;29;20035;-66
2023/12/20 05:39:04;;;;;;;61.15;30.63;;;16.50;1.00;;;;;;4946125;29;20054;-65
2023/12/20 05:41:30;;;;;;;70.78;31.35;;;16.20;1.00;;;;;;4943204;29;20055;-66
2023/12/20 05:43:57;;;;;;;56.75;29.15;;;16.30;1.00;;;;;;4942461;29;20051;-66
2023/12/20 05:46:23;;;;;;;58.38;27.92;;;16.20;99.90;;;;;;4945143;29;20043;-64
2023/12/20 05:48:49;;;;;;;49.92;27.95;;;16.50;99.90;;;;;;4930862;29;20555;-65
2023/12/20 05:51:15;;;;;;;56.15;30.17;;;16.50;1.00;;;;;;4947834;29;20035;-66
2023/12/20 05:53:41;;;;;;;59.47;29.85;;;16.30;17.90;;;;;;4931522;29;20576;-65
2023/12/20 05:56:06;;;;;;;56.20;29.75;;;16.20;79.10;;;;;;4947304;29;20051;-66
2023/12/20 05:58:33;;;;;;;56.55;28.98;;;16.40;99.90;;;;;;4943328;29;20036;-69
2023/12/20 06:00:58;;;;;;;62.13;29.45;;;16.40;99.90;;;;;;4930919;29;20047;-68
2023/12/20 06:03:24;;;;;;;58.65;30.48;;;16.50;41.10;;;;;;4947117;29;20413;-68
2023/12/20 06:05:49;;;;;;;68.65;30.80;;;16.30;99.90;;;;;;4930154;29;20078;-65
2023/12/20 06:08:15;;;;;;;62.40;31.13;;;16.10;99.90;;;;;;4946412;29;20047;-65
2023/12/20 06:10:41;;;;;;;58.60;30.08;;;16.50;99.90;;;;;;4946899;29;20452;-67
2023/12/20 06:13:06;;;;;;;54.40;29.95;;;16.20;99.90;;;;;;4946392;29;20094;-65
2023/12/20 06:15:32;;;;;;;60.08;29.95;;;16.20;99.90;;;;;;4945590;29;20090;-65
2023/12/20 06:17:58;;;;;;;60.35;30.52;;;16.30;99.90;;;;;;4946649;28;20161;-66
2023/12/20 06:20:24;;;;;;;59.35;31.90;;;16.20;99.90;;;;;;4936502;29;20051;-65
2023/12/20 06:22:50;;;;;;;61.22;30.65;;;16.20;99.90;;;;;;4945113;29;20043;-66
2023/12/20 06:25:16;;;;;;;68.40;31.55;;;17.20;99.90;;;;;;4945345;29;20544;-66
2023/12/20 06:27:42;;;;;;;63.60;31.77;;;16.50;99.90;;;;;;4950329;28;20054;-67
2023/12/20 06:30:11;;;;;;;59.00;30.38;;;16.50;99.90;;;;;;4945640;29;20039;-66
2023/12/20 06:32:37;;;;;;;62.72;30.63;;;16.50;99.90;;;;;;4944826;29;20035;-65
2023/12/20 06:35:04;;;;;;;58.72;30.98;;;16.20;99.90;;;;;;4946465;29;20038;-67
2023/12/20 06:37:30;;;;;;;63.15;32.40;;;16.30;1.00;;;;;;4944158;28;20058;-66
2023/12/20 06:39:56;;;;;;;69.75;31.90;;;16.40;99.90;;;;;;4945869;29;20501;-68
2023/12/20 06:42:22;;;;;;;55.92;31.80;;;16.60;1.00;;;;;;4946312;29;20042;-69
2023/12/20 06:44:48;;;;;;;60.55;32.25;;;16.50;1.00;;;;;;4945632;29;20110;-69
2023/12/20 06:47:14;;;;;;;65.65;33.97;;;16.20;1.00;;;;;;4945088;28;20058;-68
2023/12/20 06:49:40;;;;;;;65.28;34.05;;;16.30;1.00;;;;;;4943721;28;20082;-69
2023/12/20 06:52:06;;;;;;;57.45;30.65;;;16.20;1.00;;;;;;4945176;29;20131;-70
2023/12/20 06:54:31;;;;;;;66.07;30.98;;;16.20;99.90;;;;;;4946065;29;20565;-69
2023/12/20 06:56:57;;;;;;;64.03;30.52;;;16.50;99.90;;;;;;4945548;29;20050;-68
2023/12/20 06:59:22;;;;;;;67.78;31.13;;;16.20;99.90;;;;;;4929744;29;20516;-67
2023/12/20 07:01:49;;;;;;;61.83;30.40;;;16.30;99.90;;;;;;4946600;29;20493;-68
2023/12/20 07:04:15;;;;;;;60.65;30.77;;;16.40;99.90;;;;;;4946666;29;20481;-68
2023/12/20 07:06:41;;;;;;;59.08;29.90;;;16.60;86.40;;;;;;4930932;29;20458;-68
2023/12/20 07:09:06;;;;;;;65.93;31.73;;;16.30;99.90;;;;;;4946826;29;20470;-68
2023/12/20 07:11:32;;;;;;;64.68;32.35;;;16.40;99.90;;;;;;4947314;29;20043;-69
2023/12/20 07:13:57;;;;;;;54.00;29.77;;;17.10;99.90;;;;;;4945295;29;20051;-70
2023/12/20 07:16:23;;;;;;;54.63;29.80;;;17.20;44.10;;;;;;4945104;29;20074;-69
2023/12/20 07:18:48;;;;;;;54.22;28.63;;;16.50;72.50;;;;;;4945456;28;20051;-69
2023/12/20 07:21:14;;;;;;;60.97;31.85;;;16.40;1.00;;;;;;4941303;29;20051;-68
2023/12/20 07:23:40;;;;;;;53.50;29.15;;;16.30;1.00;;;;;;4925767;29;20055;-67
2023/12/20 07:26:06;;;;;;;60.22;31.23;;;16.60;55.30;;;;;;4943996;29;20051;-67
2023/12/20 07:28:31;;;;;;;67.68;31.45;;;16.40;99.90;;;;;;4930137;29;20047;-68
2023/12/20 07:30:57;;;;;;;76.50;33.20;;;16.50;99.90;;;;;;4946489;29;20047;-69
2023/12/20 07:33:22;;;;;;;63.05;32.20;;;16.30;99.90;;;;;;4944243;29;20124;-70
2023/12/20 07:35:48;;;;;;;69.68;31.20;;;16.20;1.00;;;;;;4945342;29;20493;-69
2023/12/20 07:38:13;;;;;;;58.78;31.40;;;16.50;99.90;;;;;;4945209;29;20520;-69
2023/12/20 07:40:39;;;;;;;59.72;31.58;;;16.50;1.00;;;;;;4945322;29;20089;-69
2023/12/20 07:43:04;;;;;;;63.58;32.60;;;16.60;66.50;;;;;;4945660;29;20043;-68
2023/12/20 07:45:30;;;;;;;63.17;32.70;;;16.30;99.90;;;;;;4945503;29;20047;-69
2023/12/20 07:47:55;;;;;;;59.45;33.15;;;16.20;1.00;;;;;;4945873;28;20085;-69
2023/12/20 07:50:21;;;;;;;61.45;30.85;;;16.50;99.90;;;;;;4945711;29;20126;-68
2023/12/20 07:52:47;;;;;;;51.85;29.40;;;16.30;99.90;;;;;;4934318;29;20441;-68
2023/12/20 07:55:12;;;;;;;57.22;29.73;;;16.40;1.00;;;;;;4953026;28;20086;-69
2023/12/20 07:57:38;;;;;;;61.97;33.20;;;16.60;1.00;;;;;;4953339;28;20040;-70
2023/12/20 08:00:04;;;;;;;58.72;28.65;;;16.40;99.90;;;;;;4938329;29;20460;-70
2023/12/20 08:02:30;;;;;;;57.90;30.25;;;16.30;99.90;;;;;;4940464;29;20059;-67
2023/12/20 08:04:55;;;;;;;53.97;29.17;;;16.60;99.90;;;;;;4941157;29;20055;-68
2023/12/20 08:07:21;;;;;;;47.80;29.00;;;16.30;99.90;;;;;;4934082;29;20051;-68
2023/12/20 08:09:46;;;;;;;57.83;28.88;;;16.30;30.00;;;;;;4945030;29;20230;-68
2023/12/20 08:12:12;;;;;;;57.38;28.70;;;16.30;99.90;;;;;;4947356;29;20035;-70
2023/12/20 08:14:37;;;;;;;58.10;29.38;;;16.50;99.90;;;;;;4947259;29;20537;-68
2023/12/20 08:17:03;;;;;;;56.38;29.55;;;16.60;99.90;;;;;;4926949;29;20047;-69
2023/12/20 08:19:29;;;;;;;62.80;30.20;;;16.30;99.90;;;;;;4944640;28;20425;-69
2023/12/20 08:21:54;;;;;;;47.78;28.13;;;16.60;99.90;;;;;;4944882;28;20516;-69
2023/12/20 08:24:20;;;;;;;52.40;28.35;;;16.40;99.90;;;;;;4946523;28;20840;-70
2023/12/20 08:26:46;;;;;;;51.75;29.02;;;17.20;99.90;;;;;;4946267;29;20089;-69
2023/12/20 08:29:14;;;;;;;56.38;29.88;;;16.70;65.50;;;;;;4946398;29;20509;-69
2023/12/20 08:31:39;;;;;;;58.90;28.83;;;16.50;99.90;;;;;;4945889;29;20051;-68
2023/12/20 08:34:05;;;;;;;46.88;27.02;;;16.40;1.00;;;;;;4947194;29;20575;-69
2023/12/20 08:36:30;;;;;;;58.45;27.23;;;16.50;1.00;;;;;;4946887;29;20557;-69
2023/12/20 08:38:56;;;;;;;48.20;25.60;;;16.60;1.00;;;;;;4946933;29;20047;-69
2023/12/20 08:41:22;;;;;;;34.65;24.30;;;16.00;99.90;;;;;;4944992;29;20051;-69
2023/12/20 08:43:47;;;;;;;30.23;22.48;;;16.30;99.90;;;;;;4947386;29;20070;-69
2023/12/20 08:46:14;;;;;;;57.28;27.40;;;16.40;1.00;;;;;;4945835;29;20398;-68
2023/12/20 08:48:40;;;;;;;48.90;27.60;;;16.40;99.90;;;;;;4945298;29;20062;-68
2023/12/20 08:51:09;;;;;;;49.10;25.73;;;16.40;99.90;;;;;;4944503;29;20584;-68
2023/12/20 08:53:34;;;;;;;51.80;29.27;;;16.70;1.00;;;;;;4946173;29;20039;-69
2023/12/20 08:56:01;;;;;;;53.60;30.15;;;16.10;99.90;;;;;;4947559;29;20552;-69
2023/12/20 08:58:28;;;;;;;52.70;27.40;;;16.50;1.00;;;;;;4946377;29;20047;-70
2023/12/20 09:00:53;;;;;;;33.03;23.23;;;16.40;99.90;;;;;;4930116;29;20051;-68
2023/12/20 09:03:19;;;;;;;34.00;23.95;;;16.40;99.90;;;;;;4946721;29;20047;-68
2023/12/20 09:05:44;;;;;;;38.20;23.75;;;16.30;1.00;;;;;;4946960;29;20050;-70
2023/12/20 09:08:10;;;;;;;37.22;25.45;;;15.60;99.90;;;;;;4944242;29;20046;-69
2023/12/20 09:10:37;;;;;;;38.33;26.35;;;15.50;23.10;;;;;;4943796;29;20154;-69
2023/12/20 09:13:03;;;;;;;36.00;26.08;;;15.10;99.90;;;;;;4946553;28;20409;-69
2023/12/20 09:15:30;;;;;;;45.40;29.60;;;15.10;99.90;;;;;;4946320;29;20051;-70
2023/12/20 09:17:55;;;;;;;45.97;30.13;;;15.10;99.90;;;;;;4930027;29;20057;-70
2023/12/20 09:20:23;;;;;;;45.78;30.35;;;14.80;1.00;;;;;;4945615;29;20515;-70
2023/12/20 09:22:49;;;;;;;49.25;30.25;;;14.60;94.80;;;;;;4941206;28;20119;-71
2023/12/20 09:25:15;;;;;;;48.88;30.02;;;14.60;99.90;;;;;;4935724;29;20039;-69
2023/12/20 09:27:41;;;;;;;39.90;26.20;;;14.90;99.90;;;;;;4938714;28;20061;-69
2023/12/20 09:30:07;;;;;;;36.40;24.80;;;14.90;99.90;;;;;;4933449;29;20044;-71
2023/12/20 09:32:32;;;;;;;36.38;25.83;;;15.20;99.90;;;;;;4938318;29;20069;-69
2023/12/20 09:34:58;;;;;;;32.47;23.77;;;15.10;99.90;;;;;;4943563;29;20102;-70
2023/12/20 09:37:27;;;;;;;31.77;23.60;;;15.20;1.00;;;;;;4945309;29;20043;-69
2023/12/20 09:39:53;;;;;;;36.85;25.15;;;15.30;99.90;;;;;;4944425;29;20039;-70
2023/12/20 09:42:29;;;;;;;35.53;25.15;;;15.30;99.90;;;;;;4946308;29;20118;-70
2023/12/20 09:44:56;;;;;;;45.38;26.27;;;15.30;99.90;;;;;;4946079;29;20497;-69
2023/12/20 09:47:24;;;;;;;40.97;27.10;;;15.00;1.00;;;;;;4942491;29;20043;-69
2023/12/20 09:49:50;;;;;;;34.50;24.38;;;15.40;99.90;;;;;;4941155;29;20521;-69
2023/12/20 09:52:43;;;;;;;38.78;24.98;;;15.30;99.90;;;;;;4946155;29;20035;-70
2023/12/20 09:55:09;;;;;;;32.97;22.25;;;15.10;99.90;;;;;;4941114;28;20441;-69
2023/12/20 09:57:35;;;;;;;24.70;20.52;;;16.10;99.90;;;;;;4945763;29;20046;-70
2023/12/20 10:00:01;;;;;;;34.55;24.65;;;15.20;99.90;;;;;;4944146;29;20047;-69
2023/12/20 10:02:27;;;;;;;34.78;23.88;;;15.30;99.90;;;;;;4944935;29;20828;-70
2023/12/20 10:04:54;;;;;;;38.65;24.77;;;16.30;99.90;;;;;;4944531;28;20424;-70
2023/12/20 10:07:20;;;;;;;41.42;25.70;;;15.60;99.90;;;;;;4945370;29;20066;-69
2023/12/20 10:09:47;;;;;;;36.00;24.77;;;15.60;99.90;;;;;;4945932;29;20047;-68
2023/12/20 10:12:12;;;;;;;32.08;21.33;;;15.80;99.90;;;;;;4945278;28;20107;-70
2023/12/20 10:14:39;;;;;;;39.63;24.60;;;15.60;1.00;;;;;;4948197;28;20047;-69
2023/12/20 10:17:05;;;;;;;28.98;20.48;;;15.90;1.00;;;;;;4940158;29;20497;-69
2023/12/20 10:19:34;;;;;;;26.85;21.00;;;15.80;99.90;;;;;;4944009;28;20797;-70
2023/12/20 10:22:00;;;;;;;30.55;22.02;;;15.90;99.90;;;;;;4944556;28;20043;-69
2023/12/20 10:24:29;;;;;;;34.33;19.02;;;15.80;99.90;;;;;;4925870;29;20768;-68
2023/12/20 10:27:05;;;;;;;32.90;20.10;;;15.90;1.00;;;;;;4943542;29;20047;-68
2023/12/20 10:29:35;;;;;;;28.33;19.15;;;16.00;1.00;;;;;;4943712;29;20039;-69
2023/12/20 10:32:25;;;;;;;29.40;20.10;;;15.80;1.00;;;;;;4945153;29;20711;-69
2023/12/20 10:34:52;;;;;;;30.20;18.83;;;15.90;1.00;;;;;;4944634;29;20043;-69
2023/12/20 10:37:17;;;;;;;34.80;21.15;;;15.80;1.00;;;;;;4944409;29;20099;-69
2023/12/20 10:39:43;;;;;;;36.33;22.00;;;15.90;1.00;;;;;;4942735;29;20480;-70
2023/12/20 10:42:13;;;;;;;32.55;20.98;;;15.80;1.00;;;;;;4945009;29;20505;-69
2023/12/20 10:44:39;;;;;;;28.48;19.92;;;15.80;1.00;;;;;;4945653;29;20035;-71
2023/12/20 10:47:06;;;;;;;30.73;19.13;;;16.00;99.90;;;;;;4941924;29;20097;-69
2023/12/20 10:49:36;;;;;;;27.92;19.25;;;16.00;99.90;;;;;;4938895;29;20053;-68
2023/12/20 10:52:03;;;;;;;35.65;20.00;;;16.10;99.90;;;;;;4942006;28;20425;-69
2023/12/20 10:54:29;;;;;;;27.85;18.38;;;16.10;99.90;;;;;;4945245;29;20121;-68
2023/12/20 10:56:57;;;;;;;29.65;19.17;;;16.10;99.90;;;;;;4943132;29;20043;-69
2023/12/20 10:59:24;;;;;;;27.45;17.08;;;16.20;99.90;;;;;;4944446;29;20414;-71
2023/12/20 11:01:51;;;;;;;30.38;18.35;;;16.10;99.90;;;;;;4940568;29;20147;-70
2023/12/20 11:04:24;;;;;;;28.00;16.75;;;16.10;99.90;;;;;;4944238;29;20089;-70
2023/12/20 11:06:59;;;;;;;29.85;16.80;;;16.20;99.90;;;;;;4943135;29;20087;-69
2023/12/20 11:09:40;;;;;;;29.42;18.60;;;16.20;99.90;;;;;;4943878;29;20082;-69
2023/12/20 11:12:22;;;;;;;33.70;18.65;;;16.10;99.90;;;;;;4942704;29;20067;-69
2023/12/20 11:14:52;;;;;;;33.65;20.55;;;16.00;99.90;;;;;;4944828;29;20047;-69
2023/12/20 11:17:18;;;;;;;40.08;21.83;;;16.10;99.90;;;;;;4944196;29;20533;-71
2023/12/20 11:19:52;;;;;;;34.08;22.33;;;16.20;99.90;;;;;;4941579;29;20087;-70
2023/12/20 11:22:22;;;;;;;38.42;21.80;;;16.30;1.00;;;;;;4943898;29;20050;-69
2023/12/20 11:24:48;;;;;;;36.63;22.00;;;16.30;1.00;;;;;;4945449;29;20083;-70
2023/12/20 11:27:14;;;;;;;41.20;21.90;;;16.30;1.00;;;;;;4957246;28;20597;-70
2023/12/20 11:29:41;;;;;;;38.45;21.85;;;16.10;1.00;;;;;;4948379;29;20051;-69
2023/12/20 11:32:25;;;;;;;36.17;22.30;;;16.30;1.00;;;;;;4949799;29;20058;-71
2023/12/20 11:35:10;;;;;;;44.22;24.05;;;16.20;26.40;;;;;;4952974;28;20051;-69
2023/12/20 11:37:37;;;;;;;45.55;28.05;;;16.10;99.90;;;;;;4962390;28;20502;-69
2023/12/20 11:40:07;;;;;;;42.80;27.85;;;16.60;99.90;;;;;;4947859;29;20048;-70
2023/12/20 11:42:40;;;;;;;43.13;27.23;;;16.20;6.50;;;;;;4948848;29;20098;-69
2023/12/20 11:45:09;;;;;;;39.22;25.15;;;15.90;73.30;;;;;;4948946;29;20090;-69
2023/12/20 11:47:34;;;;;;;35.13;23.52;;;16.10;1.00;;;;;;4932081;29;20042;-69
2023/12/20 11:50:03;;;;;;;30.17;21.88;;;15.80;1.00;;;;;;4944947;29;20120;-70
2023/12/20 11:52:29;;;;;;;26.27;19.48;;;15.90;99.90;;;;;;4946391;29;20054;-70
2023/12/20 11:54:55;;;;;;;28.02;18.75;;;15.80;99.90;;;;;;4948282;29;20047;-68
2023/12/20 11:57:20;;;;;;;24.25;19.65;;;15.60;22.60;;;;;;4947661;29;20050;-71
2023/12/20 11:59:46;;;;;;;24.67;19.27;;;15.80;1.00;;;;;;4946521;29;20045;-69
2023/12/20 12:02:12;;;;;;;25.98;20.55;;;15.60;99.90;;;;;;4947609;29;20040;-69
2023/12/20 12:04:38;;;;;;;32.33;22.95;;;15.50;1.00;;;;;;4947895;29;20043;-68
2023/12/20 12:07:04;;;;;;;36.15;26.08;;;15.50;69.50;;;;;;4946998;29;20039;-67
2023/12/20 12:09:29;;;;;;;32.83;26.30;;;15.50;99.90;;;;;;4948070;29;20548;-70
2023/12/20 12:11:55;;;;;;;37.33;28.17;;;15.30;1.00;;;;;;4945292;29;20051;-66
2023/12/20 12:14:21;;;;;;;38.10;27.42;;;15.30;99.90;;;;;;4946826;29;20046;-66
2023/12/20 12:16:46;;;;;;;39.83;28.27;;;15.50;99.90;;;;;;4946767;29;20453;-69
2023/12/20 12:19:25;;;;;;;41.53;28.95;;;15.40;38.30;;;;;;4947636;28;20063;-66
2023/12/20 12:22:10;;;;;;;33.53;27.55;;;15.20;99.90;;;;;;4947119;29;20186;-67
2023/12/20 12:24:37;;;;;;;36.13;26.80;;;15.20;1.00;;;;;;4945230;29;20050;-65
2023/12/20 12:27:05;;;;;;;37.58;27.85;;;15.30;63.20;;;;;;4947883;29;20102;-66